sensor_id;sensor_type;location;lat;lon;timestamp;P1;durP1;ratioP1;P2;durP2;ratioP2
54121;SDS011;40029;58.708;50.190;2022-07-18T00:03:03;6.15;;;5.55;;
54121;SDS011;40029;58.708;50.190;2022-07-18T00:05:34;13.20;;;6.60;;
54121;SDS011;40029;58.708;50.190;2022-07-18T00:08:05;9.63;;;5.63;;
54121;SDS011;40029;58.708;50.190;2022-07-18T00:10:36;8.48;;;6.53;;
54121;SDS011;40029;58.708;50.190;2022-07-18T00:13:07;6.45;;;5.90;;
54121;SDS011;40029;58.708;50.190;2022-07-18T00:15:38;7.38;;;6.50;;
54121;SDS011;40029;58.708;50.190;2022-07-18T00:18:09;6.35;;;5.85;;
54121;SDS011;40029;58.708;50.190;2022-07-18T00:20:40;6.72;;;5.68;;
54121;SDS011;40029;58.708;50.190;2022-07-18T00:23:11;6.95;;;6.32;;
54121;SDS011;40029;58.708;50.190;2022-07-18T00:25:42;14.60;;;7.43;;
54121;SDS011;40029;58.708;50.190;2022-07-18T00:28:13;9.00;;;6.93;;
54121;SDS011;40029;58.708;50.190;2022-07-18T00:30:45;10.73;;;7.63;;
54121;SDS011;40029;58.708;50.190;2022-07-18T00:33:16;10.85;;;7.07;;
54121;SDS011;40029;58.708;50.190;2022-07-18T00:35:47;10.48;;;6.18;;
54121;SDS011;40029;58.708;50.190;2022-07-18T00:38:18;7.43;;;5.78;;
54121;SDS011;40029;58.708;50.190;2022-07-18T00:40:49;8.07;;;5.80;;
54121;SDS011;40029;58.708;50.190;2022-07-18T00:43:20;11.48;;;6.57;;
54121;SDS011;40029;58.708;50.190;2022-07-18T00:45:51;9.98;;;6.60;;
54121;SDS011;40029;58.708;50.190;2022-07-18T00:48:23;6.25;;;5.45;;
54121;SDS011;40029;58.708;50.190;2022-07-18T00:50:54;11.63;;;6.95;;
54121;SDS011;40029;58.708;50.190;2022-07-18T00:53:25;7.40;;;6.32;;
54121;SDS011;40029;58.708;50.190;2022-07-18T00:55:56;7.20;;;6.47;;
54121;SDS011;40029;58.708;50.190;2022-07-18T00:58:27;11.27;;;6.35;;
54121;SDS011;40029;58.708;50.190;2022-07-18T01:00:59;13.50;;;6.85;;
54121;SDS011;40029;58.708;50.190;2022-07-18T01:03:48;7.53;;;6.10;;
54121;SDS011;40029;58.708;50.190;2022-07-18T01:06:19;11.90;;;6.45;;
54121;SDS011;40029;58.708;50.190;2022-07-18T01:08:51;8.07;;;5.40;;
54121;SDS011;40029;58.708;50.190;2022-07-18T01:11:22;9.95;;;5.93;;
54121;SDS011;40029;58.708;50.190;2022-07-18T01:13:53;7.70;;;5.13;;
54121;SDS011;40029;58.708;50.190;2022-07-18T01:16:25;6.60;;;4.97;;
54121;SDS011;40029;58.708;50.190;2022-07-18T01:18:56;8.75;;;5.78;;
54121;SDS011;40029;58.708;50.190;2022-07-18T01:21:27;6.13;;;5.05;;
54121;SDS011;40029;58.708;50.190;2022-07-18T01:23:58;7.10;;;5.57;;
54121;SDS011;40029;58.708;50.190;2022-07-18T01:26:29;7.65;;;5.28;;
54121;SDS011;40029;58.708;50.190;2022-07-18T01:29:00;9.45;;;6.22;;
54121;SDS011;40029;58.708;50.190;2022-07-18T01:31:31;5.93;;;5.13;;
54121;SDS011;40029;58.708;50.190;2022-07-18T01:34:03;8.35;;;5.80;;
54121;SDS011;40029;58.708;50.190;2022-07-18T01:36:34;7.05;;;5.72;;
54121;SDS011;40029;58.708;50.190;2022-07-18T01:39:05;6.88;;;5.32;;
54121;SDS011;40029;58.708;50.190;2022-07-18T01:41:36;10.70;;;6.20;;
54121;SDS011;40029;58.708;50.190;2022-07-18T01:44:07;10.05;;;5.50;;
54121;SDS011;40029;58.708;50.190;2022-07-18T01:46:38;6.57;;;5.85;;
54121;SDS011;40029;58.708;50.190;2022-07-18T01:49:09;7.82;;;6.18;;
54121;SDS011;40029;58.708;50.190;2022-07-18T01:51:44;8.48;;;6.78;;
54121;SDS011;40029;58.708;50.190;2022-07-18T01:54:19;14.82;;;6.68;;
54121;SDS011;40029;58.708;50.190;2022-07-18T01:56:51;10.05;;;7.22;;
54121;SDS011;40029;58.708;50.190;2022-07-18T01:59:22;7.85;;;7.25;;
54121;SDS011;40029;58.708;50.190;2022-07-18T02:01:54;13.55;;;7.15;;
54121;SDS011;40029;58.708;50.190;2022-07-18T02:04:25;15.45;;;7.32;;
54121;SDS011;40029;58.708;50.190;2022-07-18T02:07:15;10.23;;;7.05;;
54121;SDS011;40029;58.708;50.190;2022-07-18T02:09:46;9.60;;;6.07;;
54121;SDS011;40029;58.708;50.190;2022-07-18T02:12:17;6.25;;;5.65;;
54121;SDS011;40029;58.708;50.190;2022-07-18T02:14:48;16.60;;;6.68;;
54121;SDS011;40029;58.708;50.190;2022-07-18T02:17:19;10.05;;;6.68;;
54121;SDS011;40029;58.708;50.190;2022-07-18T02:19:50;7.47;;;6.65;;
54121;SDS011;40029;58.708;50.190;2022-07-18T02:22:21;12.95;;;6.93;;
54121;SDS011;40029;58.708;50.190;2022-07-18T02:24:53;11.20;;;7.80;;
54121;SDS011;40029;58.708;50.190;2022-07-18T02:27:24;10.10;;;6.68;;
54121;SDS011;40029;58.708;50.190;2022-07-18T02:29:55;10.98;;;5.90;;
54121;SDS011;40029;58.708;50.190;2022-07-18T02:32:26;6.20;;;5.38;;
54121;SDS011;40029;58.708;50.190;2022-07-18T02:34:57;16.13;;;7.30;;
54121;SDS011;40029;58.708;50.190;2022-07-18T02:37:28;10.65;;;8.18;;
54121;SDS011;40029;58.708;50.190;2022-07-18T02:39:59;12.80;;;7.32;;
54121;SDS011;40029;58.708;50.190;2022-07-18T02:42:30;11.52;;;8.95;;
54121;SDS011;40029;58.708;50.190;2022-07-18T02:45:01;16.80;;;7.85;;
54121;SDS011;40029;58.708;50.190;2022-07-18T02:47:34;11.02;;;7.85;;
54121;SDS011;40029;58.708;50.190;2022-07-18T02:50:05;12.30;;;8.50;;
54121;SDS011;40029;58.708;50.190;2022-07-18T02:52:38;8.82;;;7.45;;
54121;SDS011;40029;58.708;50.190;2022-07-18T02:55:11;9.27;;;7.40;;
54121;SDS011;40029;58.708;50.190;2022-07-18T02:57:43;10.57;;;6.15;;
54121;SDS011;40029;58.708;50.190;2022-07-18T03:00:14;6.40;;;5.40;;
54121;SDS011;40029;58.708;50.190;2022-07-18T03:02:45;5.68;;;5.10;;
54121;SDS011;40029;58.708;50.190;2022-07-18T03:05:16;6.63;;;5.03;;
54121;SDS011;40029;58.708;50.190;2022-07-18T03:07:48;5.72;;;5.13;;
54121;SDS011;40029;58.708;50.190;2022-07-18T03:10:19;5.47;;;4.97;;
54121;SDS011;40029;58.708;50.190;2022-07-18T03:12:50;8.75;;;5.53;;
54121;SDS011;40029;58.708;50.190;2022-07-18T03:15:21;6.70;;;5.07;;
54121;SDS011;40029;58.708;50.190;2022-07-18T03:17:52;7.53;;;5.18;;
54121;SDS011;40029;58.708;50.190;2022-07-18T03:20:23;10.38;;;5.47;;
54121;SDS011;40029;58.708;50.190;2022-07-18T03:22:55;6.93;;;5.22;;
54121;SDS011;40029;58.708;50.190;2022-07-18T03:25:26;11.10;;;5.93;;
54121;SDS011;40029;58.708;50.190;2022-07-18T03:27:58;7.57;;;6.97;;
54121;SDS011;40029;58.708;50.190;2022-07-18T03:30:29;7.72;;;6.60;;
54121;SDS011;40029;58.708;50.190;2022-07-18T03:33:00;6.45;;;5.95;;
54121;SDS011;40029;58.708;50.190;2022-07-18T03:35:31;6.70;;;5.20;;
54121;SDS011;40029;58.708;50.190;2022-07-18T03:38:02;6.95;;;4.22;;
54121;SDS011;40029;58.708;50.190;2022-07-18T03:40:33;10.73;;;5.30;;
54121;SDS011;40029;58.708;50.190;2022-07-18T03:43:05;6.88;;;4.70;;
54121;SDS011;40029;58.708;50.190;2022-07-18T03:45:36;6.95;;;5.40;;
54121;SDS011;40029;58.708;50.190;2022-07-18T03:48:07;12.23;;;4.57;;
54121;SDS011;40029;58.708;50.190;2022-07-18T03:50:38;5.43;;;4.40;;
54121;SDS011;40029;58.708;50.190;2022-07-18T03:53:09;7.05;;;4.75;;
54121;SDS011;40029;58.708;50.190;2022-07-18T03:55:40;14.70;;;10.30;;
54121;SDS011;40029;58.708;50.190;2022-07-18T03:58:11;6.18;;;4.40;;
54121;SDS011;40029;58.708;50.190;2022-07-18T04:00:42;6.00;;;3.88;;
54121;SDS011;40029;58.708;50.190;2022-07-18T04:03:14;6.03;;;5.03;;
54121;SDS011;40029;58.708;50.190;2022-07-18T04:05:45;5.80;;;4.70;;
54121;SDS011;40029;58.708;50.190;2022-07-18T04:08:16;6.15;;;5.03;;
54121;SDS011;40029;58.708;50.190;2022-07-18T04:10:47;8.57;;;5.88;;
54121;SDS011;40029;58.708;50.190;2022-07-18T04:13:18;4.97;;;4.47;;
54121;SDS011;40029;58.708;50.190;2022-07-18T04:15:49;5.47;;;4.90;;
54121;SDS011;40029;58.708;50.190;2022-07-18T04:18:20;5.82;;;4.60;;
54121;SDS011;40029;58.708;50.190;2022-07-18T04:20:51;5.50;;;5.00;;
54121;SDS011;40029;58.708;50.190;2022-07-18T04:23:22;6.72;;;4.65;;
54121;SDS011;40029;58.708;50.190;2022-07-18T04:25:53;5.47;;;4.85;;
54121;SDS011;40029;58.708;50.190;2022-07-18T04:28:25;5.72;;;4.22;;
54121;SDS011;40029;58.708;50.190;2022-07-18T04:30:56;9.13;;;5.40;;
54121;SDS011;40029;58.708;50.190;2022-07-18T04:33:27;4.32;;;4.00;;
54121;SDS011;40029;58.708;50.190;2022-07-18T04:35:58;5.00;;;4.05;;
54121;SDS011;40029;58.708;50.190;2022-07-18T04:38:29;11.00;;;4.22;;
54121;SDS011;40029;58.708;50.190;2022-07-18T04:41:04;4.50;;;4.10;;
54121;SDS011;40029;58.708;50.190;2022-07-18T04:43:36;5.60;;;4.75;;
54121;SDS011;40029;58.708;50.190;2022-07-18T04:46:07;6.82;;;5.10;;
54121;SDS011;40029;58.708;50.190;2022-07-18T04:48:38;5.63;;;5.13;;
54121;SDS011;40029;58.708;50.190;2022-07-18T04:51:09;6.93;;;5.88;;
54121;SDS011;40029;58.708;50.190;2022-07-18T04:53:40;5.00;;;4.40;;
54121;SDS011;40029;58.708;50.190;2022-07-18T04:56:11;10.02;;;5.10;;
54121;SDS011;40029;58.708;50.190;2022-07-18T04:58:42;10.93;;;5.30;;
54121;SDS011;40029;58.708;50.190;2022-07-18T05:01:13;5.10;;;4.70;;
54121;SDS011;40029;58.708;50.190;2022-07-18T05:03:44;6.18;;;5.55;;
54121;SDS011;40029;58.708;50.190;2022-07-18T05:06:15;12.70;;;4.72;;
54121;SDS011;40029;58.708;50.190;2022-07-18T05:08:46;5.15;;;4.75;;
54121;SDS011;40029;58.708;50.190;2022-07-18T05:11:17;5.82;;;3.70;;
54121;SDS011;40029;58.708;50.190;2022-07-18T05:13:48;7.97;;;5.15;;
54121;SDS011;40029;58.708;50.190;2022-07-18T05:16:19;4.45;;;4.05;;
54121;SDS011;40029;58.708;50.190;2022-07-18T05:18:50;5.68;;;4.30;;
54121;SDS011;40029;58.708;50.190;2022-07-18T05:21:21;8.88;;;3.97;;
54121;SDS011;40029;58.708;50.190;2022-07-18T05:23:52;4.50;;;4.10;;
54121;SDS011;40029;58.708;50.190;2022-07-18T05:26:23;5.07;;;3.90;;
54121;SDS011;40029;58.708;50.190;2022-07-18T05:28:54;8.90;;;3.97;;
54121;SDS011;40029;58.708;50.190;2022-07-18T05:31:25;6.45;;;3.92;;
54121;SDS011;40029;58.708;50.190;2022-07-18T05:33:56;4.03;;;3.70;;
54121;SDS011;40029;58.708;50.190;2022-07-18T05:36:27;4.28;;;3.88;;
54121;SDS011;40029;58.708;50.190;2022-07-18T05:38:58;6.90;;;4.25;;
54121;SDS011;40029;58.708;50.190;2022-07-18T05:41:29;3.72;;;3.42;;
54121;SDS011;40029;58.708;50.190;2022-07-18T05:44:00;12.52;;;3.83;;
54121;SDS011;40029;58.708;50.190;2022-07-18T05:46:31;4.88;;;3.33;;
54121;SDS011;40029;58.708;50.190;2022-07-18T05:49:02;4.10;;;3.70;;
54121;SDS011;40029;58.708;50.190;2022-07-18T05:51:33;7.63;;;3.72;;
54121;SDS011;40029;58.708;50.190;2022-07-18T05:54:04;9.13;;;3.90;;
54121;SDS011;40029;58.708;50.190;2022-07-18T05:56:35;4.28;;;3.33;;
54121;SDS011;40029;58.708;50.190;2022-07-18T05:59:06;7.10;;;3.90;;
54121;SDS011;40029;58.708;50.190;2022-07-18T06:01:37;5.00;;;3.70;;
54121;SDS011;40029;58.708;50.190;2022-07-18T06:04:08;4.93;;;3.38;;
54121;SDS011;40029;58.708;50.190;2022-07-18T06:06:39;3.42;;;3.17;;
54121;SDS011;40029;58.708;50.190;2022-07-18T06:09:10;7.35;;;3.30;;
54121;SDS011;40029;58.708;50.190;2022-07-18T06:11:43;6.47;;;3.80;;
54121;SDS011;40029;58.708;50.190;2022-07-18T06:14:14;3.70;;;3.40;;
54121;SDS011;40029;58.708;50.190;2022-07-18T06:16:45;6.03;;;4.03;;
54121;SDS011;40029;58.708;50.190;2022-07-18T06:19:16;6.75;;;3.83;;
54121;SDS011;40029;58.708;50.190;2022-07-18T06:21:47;6.75;;;3.30;;
54121;SDS011;40029;58.708;50.190;2022-07-18T06:24:19;6.13;;;3.80;;
54121;SDS011;40029;58.708;50.190;2022-07-18T06:26:50;5.18;;;3.72;;
54121;SDS011;40029;58.708;50.190;2022-07-18T06:29:21;5.03;;;3.80;;
54121;SDS011;40029;58.708;50.190;2022-07-18T06:31:52;4.22;;;3.83;;
54121;SDS011;40029;58.708;50.190;2022-07-18T06:34:23;6.47;;;3.88;;
54121;SDS011;40029;58.708;50.190;2022-07-18T06:36:54;17.85;;;4.63;;
54121;SDS011;40029;58.708;50.190;2022-07-18T06:42:14;4.25;;;3.83;;
54121;SDS011;40029;58.708;50.190;2022-07-18T06:44:45;10.00;;;3.90;;
54121;SDS011;40029;58.708;50.190;2022-07-18T06:47:17;8.52;;;3.67;;
54121;SDS011;40029;58.708;50.190;2022-07-18T06:49:47;6.53;;;3.17;;
54121;SDS011;40029;58.708;50.190;2022-07-18T06:52:18;11.13;;;2.95;;
54121;SDS011;40029;58.708;50.190;2022-07-18T06:54:50;9.70;;;2.95;;
54121;SDS011;40029;58.708;50.190;2022-07-18T06:57:21;7.85;;;3.28;;
54121;SDS011;40029;58.708;50.190;2022-07-18T06:59:52;3.60;;;2.90;;
54121;SDS011;40029;58.708;50.190;2022-07-18T07:02:24;4.65;;;2.85;;
54121;SDS011;40029;58.708;50.190;2022-07-18T07:04:56;4.50;;;3.28;;
54121;SDS011;40029;58.708;50.190;2022-07-18T07:07:27;13.75;;;3.45;;
54121;SDS011;40029;58.708;50.190;2022-07-18T07:09:59;7.13;;;3.28;;
54121;SDS011;40029;58.708;50.190;2022-07-18T07:12:37;4.15;;;2.83;;
54121;SDS011;40029;58.708;50.190;2022-07-18T07:15:11;4.93;;;2.63;;
54121;SDS011;40029;58.708;50.190;2022-07-18T07:17:43;6.75;;;2.97;;
54121;SDS011;40029;58.708;50.190;2022-07-18T07:20:14;4.85;;;2.90;;
54121;SDS011;40029;58.708;50.190;2022-07-18T07:22:49;10.23;;;3.60;;
54121;SDS011;40029;58.708;50.190;2022-07-18T07:25:24;6.32;;;2.90;;
54121;SDS011;40029;58.708;50.190;2022-07-18T07:27:56;3.67;;;3.15;;
54121;SDS011;40029;58.708;50.190;2022-07-18T07:30:28;3.92;;;3.00;;
54121;SDS011;40029;58.708;50.190;2022-07-18T07:33:00;7.00;;;2.97;;
54121;SDS011;40029;58.708;50.190;2022-07-18T07:35:32;7.50;;;2.92;;
54121;SDS011;40029;58.708;50.190;2022-07-18T07:38:03;7.15;;;3.10;;
54121;SDS011;40029;58.708;50.190;2022-07-18T07:40:34;3.05;;;2.85;;
54121;SDS011;40029;58.708;50.190;2022-07-18T07:43:10;4.07;;;2.65;;
54121;SDS011;40029;58.708;50.190;2022-07-18T07:45:43;8.20;;;3.20;;
54121;SDS011;40029;58.708;50.190;2022-07-18T07:48:17;9.23;;;2.92;;
54121;SDS011;40029;58.708;50.190;2022-07-18T07:50:48;6.65;;;2.90;;
54121;SDS011;40029;58.708;50.190;2022-07-18T07:53:21;3.08;;;2.72;;
54121;SDS011;40029;58.708;50.190;2022-07-18T07:55:52;8.73;;;2.85;;
54121;SDS011;40029;58.708;50.190;2022-07-18T07:58:23;2.97;;;2.60;;
54121;SDS011;40029;58.708;50.190;2022-07-18T08:00:54;4.68;;;3.00;;
54121;SDS011;40029;58.708;50.190;2022-07-18T08:03:25;4.35;;;2.63;;
54121;SDS011;40029;58.708;50.190;2022-07-18T08:05:56;4.10;;;2.90;;
54121;SDS011;40029;58.708;50.190;2022-07-18T08:08:27;3.88;;;2.60;;
54121;SDS011;40029;58.708;50.190;2022-07-18T08:10:58;4.97;;;2.60;;
54121;SDS011;40029;58.708;50.190;2022-07-18T08:13:29;2.72;;;2.25;;
54121;SDS011;40029;58.708;50.190;2022-07-18T08:16:00;8.77;;;2.60;;
54121;SDS011;40029;58.708;50.190;2022-07-18T08:18:31;2.25;;;2.08;;
54121;SDS011;40029;58.708;50.190;2022-07-18T08:21:03;2.50;;;2.30;;
54121;SDS011;40029;58.708;50.190;2022-07-18T08:23:34;6.15;;;2.30;;
54121;SDS011;40029;58.708;50.190;2022-07-18T08:26:06;3.30;;;2.47;;
54121;SDS011;40029;58.708;50.190;2022-07-18T08:28:37;5.07;;;2.50;;
54121;SDS011;40029;58.708;50.190;2022-07-18T08:31:08;7.50;;;2.20;;
54121;SDS011;40029;58.708;50.190;2022-07-18T08:33:40;5.05;;;2.25;;
54121;SDS011;40029;58.708;50.190;2022-07-18T08:36:11;2.53;;;2.30;;
54121;SDS011;40029;58.708;50.190;2022-07-18T08:38:42;2.83;;;2.40;;
54121;SDS011;40029;58.708;50.190;2022-07-18T08:41:13;4.18;;;2.75;;
54121;SDS011;40029;58.708;50.190;2022-07-18T08:43:47;4.45;;;2.20;;
54121;SDS011;40029;58.708;50.190;2022-07-18T08:46:20;4.45;;;2.63;;
54121;SDS011;40029;58.708;50.190;2022-07-18T08:48:52;5.93;;;2.80;;
54121;SDS011;40029;58.708;50.190;2022-07-18T08:51:25;20.23;;;3.67;;
54121;SDS011;40029;58.708;50.190;2022-07-18T08:53:56;12.15;;;3.28;;
54121;SDS011;40029;58.708;50.190;2022-07-18T08:56:29;6.57;;;2.80;;
54121;SDS011;40029;58.708;50.190;2022-07-18T08:59:00;21.20;;;4.88;;
54121;SDS011;40029;58.708;50.190;2022-07-18T09:01:33;4.25;;;3.03;;
54121;SDS011;40029;58.708;50.190;2022-07-18T09:04:04;7.38;;;2.88;;
54121;SDS011;40029;58.708;50.190;2022-07-18T09:06:50;19.05;;;3.60;;
54121;SDS011;40029;58.708;50.190;2022-07-18T09:09:23;15.18;;;3.90;;
54121;SDS011;40029;58.708;50.190;2022-07-18T09:12:06;13.40;;;3.85;;
54121;SDS011;40029;58.708;50.190;2022-07-18T09:14:43;9.50;;;3.80;;
54121;SDS011;40029;58.708;50.190;2022-07-18T09:22:34;4.25;;;3.05;;
54121;SDS011;40029;58.708;50.190;2022-07-18T09:27:51;7.55;;;2.63;;
54121;SDS011;40029;58.708;50.190;2022-07-18T09:30:24;5.80;;;2.55;;
54121;SDS011;40029;58.708;50.190;2022-07-18T09:35:42;23.05;;;3.15;;
54121;SDS011;40029;58.708;50.190;2022-07-18T09:38:15;7.28;;;2.55;;
54121;SDS011;40029;58.708;50.190;2022-07-18T09:40:51;3.17;;;2.28;;
54121;SDS011;40029;58.708;50.190;2022-07-18T09:43:25;2.13;;;2.00;;
54121;SDS011;40029;58.708;50.190;2022-07-18T09:45:57;3.08;;;2.33;;
54121;SDS011;40029;58.708;50.190;2022-07-18T09:48:34;30.55;;;4.05;;
54121;SDS011;40029;58.708;50.190;2022-07-18T09:51:06;4.00;;;2.55;;
54121;SDS011;40029;58.708;50.190;2022-07-18T09:53:42;3.35;;;2.80;;
54121;SDS011;40029;58.708;50.190;2022-07-18T09:56:22;3.58;;;2.40;;
54121;SDS011;40029;58.708;50.190;2022-07-18T09:58:55;5.10;;;2.30;;
54121;SDS011;40029;58.708;50.190;2022-07-18T10:01:26;2.63;;;2.00;;
54121;SDS011;40029;58.708;50.190;2022-07-18T10:03:58;6.13;;;2.40;;
54121;SDS011;40029;58.708;50.190;2022-07-18T10:06:30;5.93;;;2.63;;
54121;SDS011;40029;58.708;50.190;2022-07-18T10:09:02;7.30;;;2.38;;
54121;SDS011;40029;58.708;50.190;2022-07-18T10:11:33;9.68;;;2.35;;
54121;SDS011;40029;58.708;50.190;2022-07-18T10:14:05;2.88;;;2.20;;
54121;SDS011;40029;58.708;50.190;2022-07-18T10:16:36;3.78;;;2.47;;
54121;SDS011;40029;58.708;50.190;2022-07-18T10:19:08;4.95;;;2.17;;
54121;SDS011;40029;58.708;50.190;2022-07-18T10:21:41;5.13;;;1.90;;
54121;SDS011;40029;58.708;50.190;2022-07-18T10:24:18;3.20;;;1.80;;
54121;SDS011;40029;58.708;50.190;2022-07-18T10:32:39;3.40;;;1.77;;
54121;SDS011;40029;58.708;50.190;2022-07-18T10:35:11;2.90;;;1.90;;
54121;SDS011;40029;58.708;50.190;2022-07-18T10:37:46;4.18;;;1.77;;
54121;SDS011;40029;58.708;50.190;2022-07-18T10:40:21;4.40;;;1.73;;
54121;SDS011;40029;58.708;50.190;2022-07-18T10:46:00;2.35;;;1.70;;
54121;SDS011;40029;58.708;50.190;2022-07-18T10:51:13;4.75;;;1.60;;
54121;SDS011;40029;58.708;50.190;2022-07-18T10:58:58;9.93;;;3.30;;
54121;SDS011;40029;58.708;50.190;2022-07-18T11:01:29;5.53;;;2.22;;
54121;SDS011;40029;58.708;50.190;2022-07-18T11:07:06;6.72;;;2.38;;
54121;SDS011;40029;58.708;50.190;2022-07-18T11:09:45;3.40;;;2.00;;
54121;SDS011;40029;58.708;50.190;2022-07-18T11:20:34;34.92;;;3.47;;
54121;SDS011;40029;58.708;50.190;2022-07-18T11:25:53;3.85;;;2.13;;
54121;SDS011;40029;58.708;50.190;2022-07-18T11:28:26;10.10;;;2.80;;
54121;SDS011;40029;58.708;50.190;2022-07-18T11:31:02;28.35;;;3.45;;
54121;SDS011;40029;58.708;50.190;2022-07-18T11:33:41;7.53;;;2.28;;
54121;SDS011;40029;58.708;50.190;2022-07-18T11:36:16;5.18;;;2.50;;
54121;SDS011;40029;58.708;50.190;2022-07-18T11:38:52;3.65;;;2.50;;
54121;SDS011;40029;58.708;50.190;2022-07-18T11:41:25;4.57;;;2.60;;
54121;SDS011;40029;58.708;50.190;2022-07-18T11:43:57;4.63;;;2.42;;
54121;SDS011;40029;58.708;50.190;2022-07-18T11:46:28;28.65;;;3.08;;
54121;SDS011;40029;58.708;50.190;2022-07-18T11:49:01;4.63;;;1.77;;
54121;SDS011;40029;58.708;50.190;2022-07-18T11:51:35;5.72;;;2.00;;
54121;SDS011;40029;58.708;50.190;2022-07-18T11:54:08;6.28;;;2.00;;
54121;SDS011;40029;58.708;50.190;2022-07-18T11:56:47;5.00;;;2.90;;
54121;SDS011;40029;58.708;50.190;2022-07-18T11:59:20;6.68;;;1.90;;
54121;SDS011;40029;58.708;50.190;2022-07-18T12:01:52;8.50;;;2.30;;
54121;SDS011;40029;58.708;50.190;2022-07-18T12:04:23;9.32;;;2.40;;
54121;SDS011;40029;58.708;50.190;2022-07-18T12:09:53;3.03;;;2.17;;
54121;SDS011;40029;58.708;50.190;2022-07-18T12:12:24;94.70;;;8.23;;
54121;SDS011;40029;58.708;50.190;2022-07-18T12:14:59;12.10;;;2.78;;
54121;SDS011;40029;58.708;50.190;2022-07-18T12:17:42;3.05;;;1.98;;
54121;SDS011;40029;58.708;50.190;2022-07-18T12:20:17;3.22;;;1.98;;
54121;SDS011;40029;58.708;50.190;2022-07-18T12:23:02;1.98;;;1.85;;
54121;SDS011;40029;58.708;50.190;2022-07-18T12:25:56;6.57;;;2.20;;
54121;SDS011;40029;58.708;50.190;2022-07-18T12:28:31;56.75;;;6.05;;
54121;SDS011;40029;58.708;50.190;2022-07-18T12:31:02;4.05;;;2.22;;
54121;SDS011;40029;58.708;50.190;2022-07-18T12:33:33;9.50;;;2.25;;
54121;SDS011;40029;58.708;50.190;2022-07-18T12:36:04;11.15;;;1.92;;
54121;SDS011;40029;58.708;50.190;2022-07-18T12:38:35;10.18;;;1.92;;
54121;SDS011;40029;58.708;50.190;2022-07-18T12:41:06;22.65;;;3.15;;
54121;SDS011;40029;58.708;50.190;2022-07-18T12:43:37;7.70;;;2.05;;
54121;SDS011;40029;58.708;50.190;2022-07-18T12:46:09;5.55;;;2.08;;
54121;SDS011;40029;58.708;50.190;2022-07-18T12:48:40;8.82;;;2.13;;
54121;SDS011;40029;58.708;50.190;2022-07-18T12:51:12;35.10;;;3.55;;
54121;SDS011;40029;58.708;50.190;2022-07-18T12:53:43;6.47;;;2.25;;
54121;SDS011;40029;58.708;50.190;2022-07-18T12:56:14;10.40;;;2.22;;
54121;SDS011;40029;58.708;50.190;2022-07-18T12:58:45;11.77;;;2.85;;
54121;SDS011;40029;58.708;50.190;2022-07-18T13:01:16;2.88;;;2.08;;
54121;SDS011;40029;58.708;50.190;2022-07-18T13:03:47;7.22;;;2.22;;
54121;SDS011;40029;58.708;50.190;2022-07-18T13:06:18;6.43;;;2.25;;
54121;SDS011;40029;58.708;50.190;2022-07-18T13:08:49;5.78;;;2.72;;
54121;SDS011;40029;58.708;50.190;2022-07-18T13:11:20;11.25;;;2.55;;
54121;SDS011;40029;58.708;50.190;2022-07-18T13:13:51;43.80;;;5.00;;
54121;SDS011;40029;58.708;50.190;2022-07-18T13:16:22;24.60;;;4.03;;
54121;SDS011;40029;58.708;50.190;2022-07-18T13:18:54;9.70;;;2.70;;
54121;SDS011;40029;58.708;50.190;2022-07-18T13:21:25;8.82;;;2.10;;
54121;SDS011;40029;58.708;50.190;2022-07-18T13:23:56;6.80;;;2.13;;
54121;SDS011;40029;58.708;50.190;2022-07-18T13:26:27;9.02;;;2.30;;
54121;SDS011;40029;58.708;50.190;2022-07-18T13:28:58;7.30;;;2.17;;
54121;SDS011;40029;58.708;50.190;2022-07-18T13:31:29;8.30;;;2.42;;
54121;SDS011;40029;58.708;50.190;2022-07-18T13:34:01;84.22;;;7.30;;
54121;SDS011;40029;58.708;50.190;2022-07-18T13:36:32;14.18;;;2.50;;
54121;SDS011;40029;58.708;50.190;2022-07-18T13:39:03;7.72;;;2.13;;
54121;SDS011;40029;58.708;50.190;2022-07-18T13:41:34;12.35;;;2.95;;
54121;SDS011;40029;58.708;50.190;2022-07-18T13:44:05;5.65;;;2.05;;
54121;SDS011;40029;58.708;50.190;2022-07-18T13:46:36;3.95;;;2.55;;
54121;SDS011;40029;58.708;50.190;2022-07-18T13:49:07;27.08;;;3.33;;
54121;SDS011;40029;58.708;50.190;2022-07-18T13:51:39;21.13;;;3.40;;
54121;SDS011;40029;58.708;50.190;2022-07-18T13:54:10;16.20;;;3.35;;
54121;SDS011;40029;58.708;50.190;2022-07-18T13:56:41;14.52;;;2.72;;
54121;SDS011;40029;58.708;50.190;2022-07-18T13:59:13;20.95;;;3.67;;
54121;SDS011;40029;58.708;50.190;2022-07-18T14:01:45;27.45;;;3.67;;
54121;SDS011;40029;58.708;50.190;2022-07-18T14:04:16;15.75;;;2.90;;
54121;SDS011;40029;58.708;50.190;2022-07-18T14:06:49;11.40;;;2.67;;
54121;SDS011;40029;58.708;50.190;2022-07-18T14:09:20;16.33;;;2.80;;
54121;SDS011;40029;58.708;50.190;2022-07-18T14:11:51;28.17;;;4.10;;
54121;SDS011;40029;58.708;50.190;2022-07-18T14:14:22;27.33;;;3.70;;
54121;SDS011;40029;58.708;50.190;2022-07-18T14:16:54;12.10;;;3.03;;
54121;SDS011;40029;58.708;50.190;2022-07-18T14:19:25;23.60;;;3.33;;
54121;SDS011;40029;58.708;50.190;2022-07-18T14:21:56;6.55;;;2.60;;
54121;SDS011;40029;58.708;50.190;2022-07-18T14:24:27;11.15;;;2.78;;
54121;SDS011;40029;58.708;50.190;2022-07-18T14:26:58;14.70;;;2.70;;
54121;SDS011;40029;58.708;50.190;2022-07-18T14:29:29;70.00;;;6.13;;
54121;SDS011;40029;58.708;50.190;2022-07-18T14:32:00;25.17;;;3.85;;
54121;SDS011;40029;58.708;50.190;2022-07-18T14:34:32;12.07;;;3.00;;
54121;SDS011;40029;58.708;50.190;2022-07-18T14:37:04;15.52;;;2.92;;
54121;SDS011;40029;58.708;50.190;2022-07-18T14:39:34;20.02;;;3.78;;
54121;SDS011;40029;58.708;50.190;2022-07-18T14:42:05;13.15;;;3.10;;
54121;SDS011;40029;58.708;50.190;2022-07-18T14:44:36;10.70;;;3.63;;
54121;SDS011;40029;58.708;50.190;2022-07-18T14:47:07;5.80;;;3.30;;
54121;SDS011;40029;58.708;50.190;2022-07-18T14:49:38;5.55;;;3.55;;
54121;SDS011;40029;58.708;50.190;2022-07-18T14:52:09;8.23;;;3.60;;
54121;SDS011;40029;58.708;50.190;2022-07-18T14:54:41;8.30;;;3.47;;
54121;SDS011;40029;58.708;50.190;2022-07-18T14:57:12;24.50;;;4.35;;
54121;SDS011;40029;58.708;50.190;2022-07-18T14:59:46;30.27;;;4.30;;
54121;SDS011;40029;58.708;50.190;2022-07-18T15:02:17;18.23;;;4.00;;
54121;SDS011;40029;58.708;50.190;2022-07-18T15:04:48;24.50;;;3.70;;
54121;SDS011;40029;58.708;50.190;2022-07-18T15:07:19;17.30;;;3.25;;
54121;SDS011;40029;58.708;50.190;2022-07-18T15:09:50;8.48;;;2.78;;
54121;SDS011;40029;58.708;50.190;2022-07-18T15:12:21;25.27;;;3.53;;
54121;SDS011;40029;58.708;50.190;2022-07-18T15:14:52;22.70;;;3.55;;
54121;SDS011;40029;58.708;50.190;2022-07-18T15:17:25;18.52;;;4.50;;
54121;SDS011;40029;58.708;50.190;2022-07-18T15:19:56;8.38;;;3.35;;
54121;SDS011;40029;58.708;50.190;2022-07-18T15:22:27;9.80;;;3.33;;
54121;SDS011;40029;58.708;50.190;2022-07-18T15:24:59;25.02;;;4.03;;
54121;SDS011;40029;58.708;50.190;2022-07-18T15:27:30;17.27;;;3.53;;
54121;SDS011;40029;58.708;50.190;2022-07-18T15:30:02;13.98;;;3.60;;
54121;SDS011;40029;58.708;50.190;2022-07-18T15:32:34;17.25;;;5.10;;
54121;SDS011;40029;58.708;50.190;2022-07-18T15:35:05;11.73;;;4.35;;
54121;SDS011;40029;58.708;50.190;2022-07-18T15:37:37;11.82;;;4.15;;
54121;SDS011;40029;58.708;50.190;2022-07-18T15:40:08;13.95;;;4.13;;
54121;SDS011;40029;58.708;50.190;2022-07-18T15:42:40;6.60;;;3.70;;
54121;SDS011;40029;58.708;50.190;2022-07-18T15:45:11;20.67;;;4.43;;
54121;SDS011;40029;58.708;50.190;2022-07-18T15:47:42;17.40;;;3.55;;